sensor_id;sensor_type;location;lat;lon;timestamp;P1;durP1;ratioP1;P2;durP2;ratioP2
45784;SDS011;31489;51.404;5.474;2023-06-14T00:01:45;7.00;;;4.60;;
45784;SDS011;31489;51.404;5.474;2023-06-14T00:04:12;6.57;;;4.43;;
45784;SDS011;31489;51.404;5.474;2023-06-14T00:06:38;5.10;;;4.60;;
45784;SDS011;31489;51.404;5.474;2023-06-14T00:09:04;6.22;;;4.32;;
45784;SDS011;31489;51.404;5.474;2023-06-14T00:11:30;7.50;;;4.30;;
45784;SDS011;31489;51.404;5.474;2023-06-14T00:13:56;6.57;;;4.30;;
45784;SDS011;31489;51.404;5.474;2023-06-14T00:16:22;6.00;;;4.47;;
45784;SDS011;31489;51.404;5.474;2023-06-14T00:18:48;5.50;;;4.60;;
45784;SDS011;31489;51.404;5.474;2023-06-14T00:21:14;7.90;;;4.50;;
45784;SDS011;31489;51.404;5.474;2023-06-14T00:23:39;7.18;;;4.50;;
45784;SDS011;31489;51.404;5.474;2023-06-14T00:26:05;7.35;;;4.90;;
45784;SDS011;31489;51.404;5.474;2023-06-14T00:28:30;6.80;;;4.53;;
45784;SDS011;31489;51.404;5.474;2023-06-14T00:30:56;6.82;;;4.75;;
45784;SDS011;31489;51.404;5.474;2023-06-14T00:33:22;10.65;;;4.57;;
45784;SDS011;31489;51.404;5.474;2023-06-14T00:35:47;6.85;;;5.10;;
45784;SDS011;31489;51.404;5.474;2023-06-14T00:38:13;5.82;;;4.72;;
45784;SDS011;31489;51.404;5.474;2023-06-14T00:40:38;7.00;;;5.18;;
45784;SDS011;31489;51.404;5.474;2023-06-14T00:43:04;5.32;;;4.75;;
45784;SDS011;31489;51.404;5.474;2023-06-14T00:45:30;10.57;;;5.13;;
45784;SDS011;31489;51.404;5.474;2023-06-14T00:48:00;7.70;;;4.35;;
45784;SDS011;31489;51.404;5.474;2023-06-14T00:50:27;7.60;;;4.50;;
45784;SDS011;31489;51.404;5.474;2023-06-14T00:52:54;6.18;;;4.55;;
45784;SDS011;31489;51.404;5.474;2023-06-14T00:55:21;10.82;;;5.03;;
45784;SDS011;31489;51.404;5.474;2023-06-14T00:57:47;5.65;;;4.97;;
45784;SDS011;31489;51.404;5.474;2023-06-14T01:00:14;5.13;;;4.63;;
45784;SDS011;31489;51.404;5.474;2023-06-14T01:02:40;8.73;;;4.68;;
45784;SDS011;31489;51.404;5.474;2023-06-14T01:05:06;7.72;;;4.47;;
45784;SDS011;31489;51.404;5.474;2023-06-14T01:15:35;5.32;;;4.60;;
45784;SDS011;31489;51.404;5.474;2023-06-14T01:18:03;6.55;;;4.45;;
45784;SDS011;31489;51.404;5.474;2023-06-14T01:20:29;9.73;;;4.55;;
45784;SDS011;31489;51.404;5.474;2023-06-14T01:22:58;5.95;;;4.88;;
45784;SDS011;31489;51.404;5.474;2023-06-14T01:25:24;8.20;;;4.88;;
45784;SDS011;31489;51.404;5.474;2023-06-14T01:28:08;6.72;;;4.63;;
45784;SDS011;31489;51.404;5.474;2023-06-14T01:30:39;7.65;;;4.55;;
45784;SDS011;31489;51.404;5.474;2023-06-14T01:33:10;6.07;;;4.30;;
45784;SDS011;31489;51.404;5.474;2023-06-14T01:35:42;5.93;;;4.97;;
45784;SDS011;31489;51.404;5.474;2023-06-14T01:38:08;5.60;;;4.65;;
45784;SDS011;31489;51.404;5.474;2023-06-14T01:40:35;5.97;;;4.03;;
45784;SDS011;31489;51.404;5.474;2023-06-14T01:43:01;6.00;;;4.50;;
45784;SDS011;31489;51.404;5.474;2023-06-14T01:45:28;4.93;;;4.20;;
45784;SDS011;31489;51.404;5.474;2023-06-14T01:47:55;9.48;;;4.28;;
45784;SDS011;31489;51.404;5.474;2023-06-14T01:50:20;4.70;;;3.95;;
45784;SDS011;31489;51.404;5.474;2023-06-14T01:52:46;6.32;;;4.28;;
45784;SDS011;31489;51.404;5.474;2023-06-14T01:55:12;5.70;;;3.60;;
45784;SDS011;31489;51.404;5.474;2023-06-14T01:57:37;4.25;;;3.85;;
45784;SDS011;31489;51.404;5.474;2023-06-14T02:00:04;7.80;;;4.47;;
45784;SDS011;31489;51.404;5.474;2023-06-14T02:02:35;6.63;;;4.03;;
45784;SDS011;31489;51.404;5.474;2023-06-14T02:05:01;8.88;;;4.20;;
45784;SDS011;31489;51.404;5.474;2023-06-14T02:07:26;8.52;;;4.45;;
45784;SDS011;31489;51.404;5.474;2023-06-14T02:09:52;5.25;;;4.25;;
45784;SDS011;31489;51.404;5.474;2023-06-14T02:12:17;4.30;;;3.65;;
45784;SDS011;31489;51.404;5.474;2023-06-14T02:14:43;8.75;;;4.22;;
45784;SDS011;31489;51.404;5.474;2023-06-14T02:17:09;4.63;;;4.10;;
45784;SDS011;31489;51.404;5.474;2023-06-14T02:19:35;4.45;;;3.72;;
45784;SDS011;31489;51.404;5.474;2023-06-14T02:22:01;6.63;;;4.10;;
45784;SDS011;31489;51.404;5.474;2023-06-14T02:24:27;6.25;;;4.15;;
45784;SDS011;31489;51.404;5.474;2023-06-14T02:26:52;4.28;;;3.80;;
45784;SDS011;31489;51.404;5.474;2023-06-14T02:29:18;7.90;;;4.07;;
45784;SDS011;31489;51.404;5.474;2023-06-14T02:31:43;5.95;;;4.30;;
45784;SDS011;31489;51.404;5.474;2023-06-14T02:34:11;5.47;;;4.25;;
45784;SDS011;31489;51.404;5.474;2023-06-14T02:36:37;5.50;;;4.10;;
45784;SDS011;31489;51.404;5.474;2023-06-14T02:39:06;6.68;;;3.90;;
45784;SDS011;31489;51.404;5.474;2023-06-14T02:41:34;6.10;;;4.03;;
45784;SDS011;31489;51.404;5.474;2023-06-14T02:43:59;7.38;;;3.97;;
45784;SDS011;31489;51.404;5.474;2023-06-14T02:46:25;6.13;;;4.18;;
45784;SDS011;31489;51.404;5.474;2023-06-14T02:48:51;9.13;;;4.63;;
45784;SDS011;31489;51.404;5.474;2023-06-14T02:51:16;4.65;;;4.10;;
45784;SDS011;31489;51.404;5.474;2023-06-14T02:53:42;5.47;;;4.10;;
45784;SDS011;31489;51.404;5.474;2023-06-14T02:56:08;6.65;;;4.32;;
45784;SDS011;31489;51.404;5.474;2023-06-14T02:58:35;6.40;;;4.13;;
45784;SDS011;31489;51.404;5.474;2023-06-14T03:01:01;7.55;;;3.78;;
45784;SDS011;31489;51.404;5.474;2023-06-14T03:03:29;8.77;;;4.60;;
45784;SDS011;31489;51.404;5.474;2023-06-14T03:05:54;5.78;;;4.18;;
45784;SDS011;31489;51.404;5.474;2023-06-14T03:08:21;4.35;;;3.67;;
45784;SDS011;31489;51.404;5.474;2023-06-14T03:10:52;12.02;;;4.47;;
45784;SDS011;31489;51.404;5.474;2023-06-14T03:13:18;4.75;;;4.25;;
45784;SDS011;31489;51.404;5.474;2023-06-14T03:15:47;5.38;;;3.80;;
45784;SDS011;31489;51.404;5.474;2023-06-14T03:18:15;6.40;;;4.00;;
45784;SDS011;31489;51.404;5.474;2023-06-14T03:20:41;7.07;;;4.28;;
45784;SDS011;31489;51.404;5.474;2023-06-14T03:23:10;5.97;;;3.88;;
45784;SDS011;31489;51.404;5.474;2023-06-14T03:25:36;4.90;;;3.95;;
45784;SDS011;31489;51.404;5.474;2023-06-14T03:28:03;6.05;;;3.75;;
45784;SDS011;31489;51.404;5.474;2023-06-14T03:30:29;6.40;;;4.07;;
45784;SDS011;31489;51.404;5.474;2023-06-14T03:32:56;5.43;;;3.90;;
45784;SDS011;31489;51.404;5.474;2023-06-14T03:35:22;5.40;;;3.75;;
45784;SDS011;31489;51.404;5.474;2023-06-14T03:37:48;5.40;;;4.15;;
45784;SDS011;31489;51.404;5.474;2023-06-14T03:40:15;7.07;;;3.92;;
45784;SDS011;31489;51.404;5.474;2023-06-14T03:42:43;6.70;;;4.18;;
45784;SDS011;31489;51.404;5.474;2023-06-14T03:45:09;5.72;;;3.60;;
45784;SDS011;31489;51.404;5.474;2023-06-14T03:47:35;7.90;;;3.80;;
45784;SDS011;31489;51.404;5.474;2023-06-14T03:50:02;4.53;;;3.50;;
45784;SDS011;31489;51.404;5.474;2023-06-14T03:52:28;6.97;;;3.92;;
45784;SDS011;31489;51.404;5.474;2023-06-14T03:54:54;8.18;;;4.43;;
45784;SDS011;31489;51.404;5.474;2023-06-14T03:57:20;5.47;;;3.42;;
45784;SDS011;31489;51.404;5.474;2023-06-14T03:59:46;6.43;;;3.92;;
45784;SDS011;31489;51.404;5.474;2023-06-14T04:02:12;4.78;;;3.60;;
45784;SDS011;31489;51.404;5.474;2023-06-14T04:04:41;4.38;;;3.38;;
45784;SDS011;31489;51.404;5.474;2023-06-14T04:07:09;4.15;;;3.38;;
45784;SDS011;31489;51.404;5.474;2023-06-14T04:09:36;5.50;;;3.92;;
45784;SDS011;31489;51.404;5.474;2023-06-14T04:12:02;4.03;;;3.47;;
45784;SDS011;31489;51.404;5.474;2023-06-14T04:14:28;4.78;;;3.80;;
45784;SDS011;31489;51.404;5.474;2023-06-14T04:16:55;6.28;;;3.88;;
45784;SDS011;31489;51.404;5.474;2023-06-14T04:19:21;6.50;;;3.70;;
45784;SDS011;31489;51.404;5.474;2023-06-14T04:21:46;6.93;;;3.40;;
45784;SDS011;31489;51.404;5.474;2023-06-14T04:24:12;7.55;;;3.70;;
45784;SDS011;31489;51.404;5.474;2023-06-14T04:26:39;7.70;;;3.58;;
45784;SDS011;31489;51.404;5.474;2023-06-14T04:29:06;5.22;;;3.53;;
45784;SDS011;31489;51.404;5.474;2023-06-14T04:31:31;5.30;;;3.65;;
45784;SDS011;31489;51.404;5.474;2023-06-14T04:34:02;4.57;;;3.58;;
45784;SDS011;31489;51.404;5.474;2023-06-14T04:36:31;4.28;;;3.60;;
45784;SDS011;31489;51.404;5.474;2023-06-14T04:39:02;5.85;;;3.70;;
45784;SDS011;31489;51.404;5.474;2023-06-14T04:41:29;6.68;;;3.83;;
45784;SDS011;31489;51.404;5.474;2023-06-14T04:43:55;6.40;;;3.70;;
45784;SDS011;31489;51.404;5.474;2023-06-14T04:46:26;7.57;;;3.60;;
45784;SDS011;31489;51.404;5.474;2023-06-14T04:48:53;5.50;;;3.75;;
45784;SDS011;31489;51.404;5.474;2023-06-14T04:51:19;5.80;;;3.85;;
45784;SDS011;31489;51.404;5.474;2023-06-14T04:53:47;6.93;;;3.67;;
45784;SDS011;31489;51.404;5.474;2023-06-14T04:56:14;5.70;;;3.42;;
45784;SDS011;31489;51.404;5.474;2023-06-14T04:58:40;6.95;;;3.90;;
45784;SDS011;31489;51.404;5.474;2023-06-14T05:01:05;5.47;;;3.65;;
45784;SDS011;31489;51.404;5.474;2023-06-14T05:03:34;19.55;;;13.80;;
45784;SDS011;31489;51.404;5.474;2023-06-14T05:05:59;12.65;;;8.55;;
45784;SDS011;31489;51.404;5.474;2023-06-14T05:08:25;7.50;;;5.22;;
45784;SDS011;31489;51.404;5.474;2023-06-14T05:10:51;6.45;;;4.40;;
45784;SDS011;31489;51.404;5.474;2023-06-14T05:13:17;5.15;;;3.80;;
45784;SDS011;31489;51.404;5.474;2023-06-14T05:15:43;12.68;;;4.20;;
45784;SDS011;31489;51.404;5.474;2023-06-14T05:18:09;8.30;;;4.10;;
45784;SDS011;31489;51.404;5.474;2023-06-14T05:20:35;6.47;;;3.85;;
45784;SDS011;31489;51.404;5.474;2023-06-14T05:23:02;5.10;;;3.75;;
45784;SDS011;31489;51.404;5.474;2023-06-14T05:25:28;4.68;;;3.80;;
45784;SDS011;31489;51.404;5.474;2023-06-14T05:27:53;6.80;;;3.70;;
45784;SDS011;31489;51.404;5.474;2023-06-14T05:30:19;5.95;;;3.50;;
45784;SDS011;31489;51.404;5.474;2023-06-14T05:32:45;4.00;;;3.45;;
45784;SDS011;31489;51.404;5.474;2023-06-14T05:35:10;5.88;;;3.45;;
45784;SDS011;31489;51.404;5.474;2023-06-14T05:37:36;10.13;;;3.88;;
45784;SDS011;31489;51.404;5.474;2023-06-14T05:40:02;9.00;;;4.00;;
45784;SDS011;31489;51.404;5.474;2023-06-14T05:42:32;5.38;;;4.30;;
45784;SDS011;31489;51.404;5.474;2023-06-14T05:44:58;9.25;;;3.38;;
45784;SDS011;31489;51.404;5.474;2023-06-14T05:47:24;10.02;;;3.88;;
45784;SDS011;31489;51.404;5.474;2023-06-14T05:49:50;8.45;;;3.92;;
45784;SDS011;31489;51.404;5.474;2023-06-14T05:52:16;6.38;;;3.70;;
45784;SDS011;31489;51.404;5.474;2023-06-14T05:54:41;6.50;;;3.97;;
45784;SDS011;31489;51.404;5.474;2023-06-14T05:57:07;4.72;;;3.78;;
45784;SDS011;31489;51.404;5.474;2023-06-14T05:59:32;8.57;;;4.07;;
45784;SDS011;31489;51.404;5.474;2023-06-14T06:01:58;7.88;;;3.55;;
45784;SDS011;31489;51.404;5.474;2023-06-14T06:04:24;5.20;;;3.90;;
45784;SDS011;31489;51.404;5.474;2023-06-14T06:06:50;8.60;;;3.65;;
45784;SDS011;31489;51.404;5.474;2023-06-14T06:09:16;5.85;;;3.63;;
45784;SDS011;31489;51.404;5.474;2023-06-14T06:11:41;9.00;;;3.83;;
45784;SDS011;31489;51.404;5.474;2023-06-14T06:14:07;9.18;;;3.53;;
45784;SDS011;31489;51.404;5.474;2023-06-14T06:16:33;8.80;;;3.35;;
45784;SDS011;31489;51.404;5.474;2023-06-14T06:18:58;5.10;;;3.50;;
45784;SDS011;31489;51.404;5.474;2023-06-14T06:21:24;7.13;;;4.10;;
45784;SDS011;31489;51.404;5.474;2023-06-14T06:23:50;4.78;;;3.70;;
45784;SDS011;31489;51.404;5.474;2023-06-14T06:26:15;11.07;;;3.83;;
45784;SDS011;31489;51.404;5.474;2023-06-14T06:28:41;6.75;;;3.58;;
45784;SDS011;31489;51.404;5.474;2023-06-14T06:31:07;8.30;;;3.88;;
45784;SDS011;31489;51.404;5.474;2023-06-14T06:33:32;10.73;;;3.72;;
45784;SDS011;31489;51.404;5.474;2023-06-14T06:35:58;8.18;;;3.50;;
45784;SDS011;31489;51.404;5.474;2023-06-14T06:38:23;8.38;;;3.53;;
45784;SDS011;31489;51.404;5.474;2023-06-14T06:40:49;10.80;;;3.80;;
45784;SDS011;31489;51.404;5.474;2023-06-14T06:43:15;8.50;;;3.55;;
45784;SDS011;31489;51.404;5.474;2023-06-14T06:45:42;8.05;;;3.75;;
45784;SDS011;31489;51.404;5.474;2023-06-14T06:48:08;4.20;;;3.28;;
45784;SDS011;31489;51.404;5.474;2023-06-14T06:50:35;5.78;;;3.72;;
45784;SDS011;31489;51.404;5.474;2023-06-14T06:53:01;9.30;;;3.55;;
45784;SDS011;31489;51.404;5.474;2023-06-14T06:55:27;6.63;;;3.47;;
45784;SDS011;31489;51.404;5.474;2023-06-14T06:57:52;7.00;;;3.17;;
45784;SDS011;31489;51.404;5.474;2023-06-14T07:00:19;4.72;;;3.42;;
45784;SDS011;31489;51.404;5.474;2023-06-14T07:02:45;6.65;;;3.30;;
45784;SDS011;31489;51.404;5.474;2023-06-14T07:05:11;8.27;;;3.72;;
45784;SDS011;31489;51.404;5.474;2023-06-14T07:07:36;11.30;;;3.35;;
45784;SDS011;31489;51.404;5.474;2023-06-14T07:10:03;7.10;;;3.03;;
45784;SDS011;31489;51.404;5.474;2023-06-14T07:12:30;9.15;;;3.05;;
45784;SDS011;31489;51.404;5.474;2023-06-14T07:14:58;5.50;;;2.95;;
45784;SDS011;31489;51.404;5.474;2023-06-14T07:17:24;4.60;;;2.90;;
45784;SDS011;31489;51.404;5.474;2023-06-14T07:19:50;5.10;;;2.70;;
45784;SDS011;31489;51.404;5.474;2023-06-14T07:22:16;6.95;;;3.05;;
45784;SDS011;31489;51.404;5.474;2023-06-14T07:24:42;6.03;;;3.10;;
45784;SDS011;31489;51.404;5.474;2023-06-14T07:27:08;11.60;;;3.33;;
45784;SDS011;31489;51.404;5.474;2023-06-14T07:29:34;4.80;;;2.83;;
45784;SDS011;31489;51.404;5.474;2023-06-14T07:32:00;8.02;;;3.28;;
45784;SDS011;31489;51.404;5.474;2023-06-14T07:34:25;4.78;;;2.83;;
45784;SDS011;31489;51.404;5.474;2023-06-14T07:36:54;6.10;;;3.22;;
45784;SDS011;31489;51.404;5.474;2023-06-14T07:39:20;3.70;;;2.50;;
45784;SDS011;31489;51.404;5.474;2023-06-14T07:41:46;5.10;;;2.83;;
45784;SDS011;31489;51.404;5.474;2023-06-14T07:44:11;9.43;;;3.53;;
45784;SDS011;31489;51.404;5.474;2023-06-14T07:46:37;4.72;;;2.90;;
45784;SDS011;31489;51.404;5.474;2023-06-14T07:49:03;6.28;;;2.70;;
45784;SDS011;31489;51.404;5.474;2023-06-14T07:51:29;4.93;;;2.92;;
45784;SDS011;31489;51.404;5.474;2023-06-14T07:53:54;5.53;;;3.13;;
45784;SDS011;31489;51.404;5.474;2023-06-14T07:56:21;5.40;;;2.80;;
45784;SDS011;31489;51.404;5.474;2023-06-14T07:58:48;6.65;;;2.85;;
45784;SDS011;31489;51.404;5.474;2023-06-14T08:01:13;9.00;;;2.63;;
45784;SDS011;31489;51.404;5.474;2023-06-14T08:03:40;7.38;;;2.97;;
45784;SDS011;31489;51.404;5.474;2023-06-14T08:06:06;7.93;;;2.70;;
45784;SDS011;31489;51.404;5.474;2023-06-14T08:08:32;6.00;;;2.67;;
45784;SDS011;31489;51.404;5.474;2023-06-14T08:10:58;6.95;;;2.70;;
45784;SDS011;31489;51.404;5.474;2023-06-14T08:13:23;8.75;;;3.03;;
45784;SDS011;31489;51.404;5.474;2023-06-14T08:15:49;8.15;;;3.47;;
45784;SDS011;31489;51.404;5.474;2023-06-14T08:18:15;4.97;;;2.67;;
45784;SDS011;31489;51.404;5.474;2023-06-14T08:20:41;5.57;;;2.83;;
45784;SDS011;31489;51.404;5.474;2023-06-14T08:23:06;3.30;;;2.60;;
45784;SDS011;31489;51.404;5.474;2023-06-14T08:25:33;6.68;;;2.75;;
45784;SDS011;31489;51.404;5.474;2023-06-14T08:27:59;5.03;;;2.78;;
45784;SDS011;31489;51.404;5.474;2023-06-14T08:30:25;5.03;;;2.67;;
45784;SDS011;31489;51.404;5.474;2023-06-14T08:32:51;3.65;;;2.00;;
45784;SDS011;31489;51.404;5.474;2023-06-14T08:35:17;5.57;;;2.83;;
45784;SDS011;31489;51.404;5.474;2023-06-14T08:37:43;4.57;;;2.35;;
45784;SDS011;31489;51.404;5.474;2023-06-14T08:40:30;13.38;;;2.75;;
45784;SDS011;31489;51.404;5.474;2023-06-14T08:42:55;3.80;;;2.55;;
45784;SDS011;31489;51.404;5.474;2023-06-14T08:45:23;9.77;;;2.70;;
45784;SDS011;31489;51.404;5.474;2023-06-14T08:47:50;3.08;;;2.33;;
45784;SDS011;31489;51.404;5.474;2023-06-14T08:50:23;5.10;;;2.50;;
45784;SDS011;31489;51.404;5.474;2023-06-14T08:52:51;5.10;;;2.45;;
45784;SDS011;31489;51.404;5.474;2023-06-14T08:55:19;8.05;;;2.28;;
45784;SDS011;31489;51.404;5.474;2023-06-14T08:57:50;12.25;;;2.30;;
45784;SDS011;31489;51.404;5.474;2023-06-14T09:00:18;2.80;;;2.10;;
45784;SDS011;31489;51.404;5.474;2023-06-14T09:02:45;5.10;;;2.25;;
45784;SDS011;31489;51.404;5.474;2023-06-14T09:05:11;4.75;;;2.60;;
45784;SDS011;31489;51.404;5.474;2023-06-14T09:07:43;4.82;;;2.65;;
45784;SDS011;31489;51.404;5.474;2023-06-14T09:10:10;4.88;;;1.88;;
45784;SDS011;31489;51.404;5.474;2023-06-14T09:12:37;4.47;;;2.20;;
45784;SDS011;31489;51.404;5.474;2023-06-14T09:15:03;3.92;;;2.00;;
45784;SDS011;31489;51.404;5.474;2023-06-14T09:17:37;4.75;;;1.92;;
45784;SDS011;31489;51.404;5.474;2023-06-14T09:20:04;3.97;;;1.98;;
45784;SDS011;31489;51.404;5.474;2023-06-14T09:22:34;3.90;;;2.30;;
45784;SDS011;31489;51.404;5.474;2023-06-14T09:25:00;3.25;;;1.88;;
45784;SDS011;31489;51.404;5.474;2023-06-14T09:27:26;8.20;;;1.70;;
45784;SDS011;31489;51.404;5.474;2023-06-14T09:29:53;4.35;;;1.55;;
45784;SDS011;31489;51.404;5.474;2023-06-14T09:32:19;2.90;;;1.80;;
45784;SDS011;31489;51.404;5.474;2023-06-14T09:34:45;2.75;;;1.58;;
45784;SDS011;31489;51.404;5.474;2023-06-14T09:37:11;1.55;;;1.45;;
45784;SDS011;31489;51.404;5.474;2023-06-14T09:39:52;4.35;;;1.75;;
45784;SDS011;31489;51.404;5.474;2023-06-14T09:42:18;3.28;;;1.40;;
45784;SDS011;31489;51.404;5.474;2023-06-14T09:44:48;2.15;;;1.35;;
45784;SDS011;31489;51.404;5.474;2023-06-14T09:47:17;3.70;;;1.30;;
45784;SDS011;31489;51.404;5.474;2023-06-14T09:49:43;3.33;;;1.27;;
45784;SDS011;31489;51.404;5.474;2023-06-14T09:52:19;4.93;;;1.40;;
45784;SDS011;31489;51.404;5.474;2023-06-14T09:54:46;4.47;;;1.50;;
45784;SDS011;31489;51.404;5.474;2023-06-14T09:57:13;1.40;;;1.30;;
45784;SDS011;31489;51.404;5.474;2023-06-14T09:59:44;1.98;;;1.60;;
45784;SDS011;31489;51.404;5.474;2023-06-14T10:04:55;5.68;;;1.20;;
45784;SDS011;31489;51.404;5.474;2023-06-14T10:07:26;4.65;;;1.30;;
45784;SDS011;31489;51.404;5.474;2023-06-14T10:09:55;2.80;;;1.50;;
45784;SDS011;31489;51.404;5.474;2023-06-14T10:12:21;1.48;;;1.38;;
45784;SDS011;31489;51.404;5.474;2023-06-14T10:14:48;3.55;;;1.30;;
45784;SDS011;31489;51.404;5.474;2023-06-14T10:22:56;1.80;;;1.23;;
45784;SDS011;31489;51.404;5.474;2023-06-14T10:25:27;5.65;;;1.50;;
45784;SDS011;31489;51.404;5.474;2023-06-14T10:28:02;1.50;;;1.30;;
45784;SDS011;31489;51.404;5.474;2023-06-14T10:30:41;4.13;;;1.60;;
45784;SDS011;31489;51.404;5.474;2023-06-14T10:33:48;1.67;;;1.30;;
45784;SDS011;31489;51.404;5.474;2023-06-14T10:39:06;4.80;;;1.52;;
45784;SDS011;31489;51.404;5.474;2023-06-14T10:41:37;3.05;;;1.50;;
45784;SDS011;31489;51.404;5.474;2023-06-14T10:46:38;1.77;;;1.50;;
45784;SDS011;31489;51.404;5.474;2023-06-14T10:49:05;4.13;;;1.50;;
45784;SDS011;31489;51.404;5.474;2023-06-14T10:51:44;2.13;;;1.42;;
45784;SDS011;31489;51.404;5.474;2023-06-14T10:54:20;1.50;;;1.35;;
45784;SDS011;31489;51.404;5.474;2023-06-14T10:56:46;4.28;;;1.58;;
45784;SDS011;31489;51.404;5.474;2023-06-14T10:59:16;2.05;;;1.50;;
45784;SDS011;31489;51.404;5.474;2023-06-14T11:04:23;4.97;;;1.45;;
45784;SDS011;31489;51.404;5.474;2023-06-14T11:12:49;5.00;;;1.30;;
45784;SDS011;31489;51.404;5.474;2023-06-14T11:15:17;2.03;;;1.30;;
45784;SDS011;31489;51.404;5.474;2023-06-14T11:17:49;3.80;;;1.55;;
45784;SDS011;31489;51.404;5.474;2023-06-14T11:20:18;1.55;;;1.20;;
45784;SDS011;31489;51.404;5.474;2023-06-14T11:22:44;2.13;;;1.35;;
45784;SDS011;31489;51.404;5.474;2023-06-14T11:25:12;2.65;;;1.27;;
45784;SDS011;31489;51.404;5.474;2023-06-14T11:27:44;2.92;;;1.40;;
45784;SDS011;31489;51.404;5.474;2023-06-14T11:30:10;1.48;;;1.33;;
45784;SDS011;31489;51.404;5.474;2023-06-14T11:32:37;6.00;;;1.65;;
45784;SDS011;31489;51.404;5.474;2023-06-14T11:35:03;3.55;;;1.30;;
45784;SDS011;31489;51.404;5.474;2023-06-14T11:37:32;1.70;;;1.50;;
45784;SDS011;31489;51.404;5.474;2023-06-14T11:39:59;3.40;;;1.42;;
45784;SDS011;31489;51.404;5.474;2023-06-14T11:42:28;3.17;;;1.48;;
45784;SDS011;31489;51.404;5.474;2023-06-14T11:44:55;3.35;;;1.67;;
45784;SDS011;31489;51.404;5.474;2023-06-14T11:47:21;2.63;;;1.48;;
45784;SDS011;31489;51.404;5.474;2023-06-14T11:49:47;1.83;;;1.40;;
45784;SDS011;31489;51.404;5.474;2023-06-14T11:52:13;3.90;;;1.40;;
45784;SDS011;31489;51.404;5.474;2023-06-14T11:54:39;4.32;;;1.70;;
45784;SDS011;31489;51.404;5.474;2023-06-14T11:57:06;2.47;;;2.03;;
45784;SDS011;31489;51.404;5.474;2023-06-14T11:59:37;5.00;;;1.70;;
45784;SDS011;31489;51.404;5.474;2023-06-14T12:02:06;3.22;;;1.60;;
45784;SDS011;31489;51.404;5.474;2023-06-14T12:04:32;3.60;;;1.40;;
45784;SDS011;31489;51.404;5.474;2023-06-14T12:07:19;4.32;;;1.50;;
45784;SDS011;31489;51.404;5.474;2023-06-14T12:12:18;4.97;;;1.45;;
45784;SDS011;31489;51.404;5.474;2023-06-14T12:14:46;4.10;;;1.27;;
45784;SDS011;31489;51.404;5.474;2023-06-14T12:17:12;1.48;;;1.25;;
45784;SDS011;31489;51.404;5.474;2023-06-14T12:19:41;2.55;;;1.40;;
45784;SDS011;31489;51.404;5.474;2023-06-14T12:22:11;2.42;;;1.40;;
45784;SDS011;31489;51.404;5.474;2023-06-14T12:24:38;3.58;;;1.70;;
45784;SDS011;31489;51.404;5.474;2023-06-14T12:27:04;4.20;;;1.38;;
45784;SDS011;31489;51.404;5.474;2023-06-14T12:29:31;2.65;;;1.50;;
45784;SDS011;31489;51.404;5.474;2023-06-14T12:31:57;3.58;;;1.65;;
45784;SDS011;31489;51.404;5.474;2023-06-14T12:34:23;3.13;;;1.23;;
45784;SDS011;31489;51.404;5.474;2023-06-14T12:36:52;7.15;;;1.35;;
45784;SDS011;31489;51.404;5.474;2023-06-14T12:39:18;4.00;;;1.30;;
45784;SDS011;31489;51.404;5.474;2023-06-14T12:41:44;2.35;;;1.40;;
45784;SDS011;31489;51.404;5.474;2023-06-14T12:44:13;8.38;;;1.45;;
45784;SDS011;31489;51.404;5.474;2023-06-14T12:46:40;2.88;;;1.27;;
45784;SDS011;31489;51.404;5.474;2023-06-14T12:49:08;1.52;;;1.42;;
45784;SDS011;31489;51.404;5.474;2023-06-14T12:51:34;3.70;;;1.50;;
45784;SDS011;31489;51.404;5.474;2023-06-14T12:54:00;1.10;;;1.10;;
45784;SDS011;31489;51.404;5.474;2023-06-14T12:56:26;5.28;;;1.65;;
45784;SDS011;31489;51.404;5.474;2023-06-14T12:58:52;1.25;;;1.15;;
45784;SDS011;31489;51.404;5.474;2023-06-14T13:01:17;2.88;;;1.27;;
45784;SDS011;31489;51.404;5.474;2023-06-14T13:03:43;4.25;;;1.10;;
45784;SDS011;31489;51.404;5.474;2023-06-14T13:06:10;2.83;;;1.38;;
45784;SDS011;31489;51.404;5.474;2023-06-14T13:08:38;3.08;;;1.30;;
45784;SDS011;31489;51.404;5.474;2023-06-14T13:11:04;2.10;;;1.13;;
45784;SDS011;31489;51.404;5.474;2023-06-14T13:13:29;1.73;;;1.20;;
45784;SDS011;31489;51.404;5.474;2023-06-14T13:15:55;3.97;;;1.33;;
45784;SDS011;31489;51.404;5.474;2023-06-14T13:18:21;4.07;;;1.20;;
45784;SDS011;31489;51.404;5.474;2023-06-14T13:20:46;2.97;;;1.35;;
45784;SDS011;31489;51.404;5.474;2023-06-14T13:23:12;1.52;;;1.17;;
45784;SDS011;31489;51.404;5.474;2023-06-14T13:25:39;3.85;;;1.25;;
45784;SDS011;31489;51.404;5.474;2023-06-14T13:28:04;1.33;;;1.20;;
45784;SDS011;31489;51.404;5.474;2023-06-14T13:30:31;3.63;;;1.17;;
45784;SDS011;31489;51.404;5.474;2023-06-14T13:32:57;2.33;;;0.98;;
45784;SDS011;31489;51.404;5.474;2023-06-14T13:35:23;4.93;;;1.20;;
45784;SDS011;31489;51.404;5.474;2023-06-14T13:37:49;1.20;;;1.10;;
45784;SDS011;31489;51.404;5.474;2023-06-14T13:40:16;3.78;;;1.10;;
45784;SDS011;31489;51.404;5.474;2023-06-14T13:42:41;1.67;;;1.10;;
45784;SDS011;31489;51.404;5.474;2023-06-14T13:45:07;3.00;;;0.93;;
45784;SDS011;31489;51.404;5.474;2023-06-14T13:47:36;7.20;;;1.10;;
45784;SDS011;31489;51.404;5.474;2023-06-14T13:50:03;4.20;;;1.20;;
45784;SDS011;31489;51.404;5.474;2023-06-14T13:52:29;3.05;;;1.15;;
45784;SDS011;31489;51.404;5.474;2023-06-14T13:54:54;3.67;;;1.55;;
45784;SDS011;31489;51.404;5.474;2023-06-14T13:57:20;2.05;;;1.00;;
45784;SDS011;31489;51.404;5.474;2023-06-14T13:59:46;4.15;;;1.15;;
45784;SDS011;31489;51.404;5.474;2023-06-14T14:02:12;1.33;;;1.00;;
45784;SDS011;31489;51.404;5.474;2023-06-14T14:04:38;8.85;;;1.20;;
45784;SDS011;31489;51.404;5.474;2023-06-14T14:07:05;3.13;;;1.13;;
45784;SDS011;31489;51.404;5.474;2023-06-14T14:09:31;4.55;;;1.00;;
45784;SDS011;31489;51.404;5.474;2023-06-14T14:11:58;1.20;;;0.85;;
45784;SDS011;31489;51.404;5.474;2023-06-14T14:14:24;4.15;;;1.00;;
45784;SDS011;31489;51.404;5.474;2023-06-14T14:16:50;1.67;;;0.90;;
45784;SDS011;31489;51.404;5.474;2023-06-14T14:19:19;2.53;;;0.93;;
45784;SDS011;31489;51.404;5.474;2023-06-14T14:21:48;2.30;;;1.13;;
45784;SDS011;31489;51.404;5.474;2023-06-14T14:24:13;7.60;;;0.98;;
45784;SDS011;31489;51.404;5.474;2023-06-14T14:26:39;5.97;;;1.00;;
45784;SDS011;31489;51.404;5.474;2023-06-14T14:29:05;1.15;;;0.80;;
45784;SDS011;31489;51.404;5.474;2023-06-14T14:31:31;1.92;;;0.90;;
45784;SDS011;31489;51.404;5.474;2023-06-14T14:33:57;2.67;;;1.00;;
45784;SDS011;31489;51.404;5.474;2023-06-14T14:36:22;2.63;;;0.95;;
45784;SDS011;31489;51.404;5.474;2023-06-14T14:38:48;4.93;;;1.00;;
45784;SDS011;31489;51.404;5.474;2023-06-14T14:41:16;1.75;;;0.93;;
45784;SDS011;31489;51.404;5.474;2023-06-14T14:43:42;1.70;;;0.80;;
45784;SDS011;31489;51.404;5.474;2023-06-14T14:46:08;0.90;;;0.60;;
45784;SDS011;31489;51.404;5.474;2023-06-14T14:48:36;3.53;;;0.90;;
45784;SDS011;31489;51.404;5.474;2023-06-14T14:51:02;1.02;;;0.80;;
45784;SDS011;31489;51.404;5.474;2023-06-14T14:53:28;4.53;;;0.80;;
45784;SDS011;31489;51.404;5.474;2023-06-14T14:55:54;4.35;;;0.90;;
45784;SDS011;31489;51.404;5.474;2023-06-14T14:58:20;2.05;;;1.00;;
45784;SDS011;31489;51.404;5.474;2023-06-14T15:00:45;2.03;;;1.02;;
45784;SDS011;31489;51.404;5.474;2023-06-14T15:03:12;1.42;;;0.80;;
45784;SDS011;31489;51.404;5.474;2023-06-14T15:05:38;2.10;;;0.90;;
45784;SDS011;31489;51.404;5.474;2023-06-14T15:08:04;2.05;;;1.00;;
45784;SDS011;31489;51.404;5.474;2023-06-14T15:10:37;1.60;;;0.80;;
45784;SDS011;31489;51.404;5.474;2023-06-14T15:13:08;0.98;;;0.88;;
45784;SDS011;31489;51.404;5.474;2023-06-14T15:15:36;11.95;;;1.35;;
45784;SDS011;31489;51.404;5.474;2023-06-14T15:18:02;1.13;;;0.98;;
45784;SDS011;31489;51.404;5.474;2023-06-14T15:20:28;2.40;;;1.00;;